createdAt,value
2017-10-15T00:00:25.455Z,86.98
2017-10-15T00:02:53.029Z,86.78
2017-10-15T00:05:20.659Z,87.16
2017-10-15T00:07:48.224Z,87.17
2017-10-15T00:10:15.800Z,87.06
2017-10-15T00:12:43.396Z,87.53
2017-10-15T00:15:10.969Z,87.86
2017-10-15T00:17:38.564Z,88.00
2017-10-15T00:20:06.142Z,88.08
2017-10-15T00:22:34.103Z,88.12
2017-10-15T00:25:01.677Z,88.21
2017-10-15T00:27:29.349Z,88.22
2017-10-15T00:29:56.928Z,88.15
2017-10-15T00:32:24.490Z,88.47
2017-10-15T00:34:52.076Z,88.35
2017-10-15T00:37:19.646Z,88.36
2017-10-15T00:39:47.236Z,88.39
2017-10-15T00:42:14.805Z,88.75
2017-10-15T00:44:42.771Z,88.63
2017-10-15T00:47:10.345Z,88.31
2017-10-15T00:49:37.907Z,88.29
2017-10-15T00:52:05.517Z,88.31
2017-10-15T00:54:33.094Z,88.53
2017-10-15T00:57:00.675Z,88.43
2017-10-15T00:59:28.331Z,88.44
2017-10-15T01:01:55.930Z,88.38
2017-10-15T01:04:23.846Z,88.32
2017-10-15T01:06:51.543Z,88.55
2017-10-15T01:09:19.123Z,88.55
2017-10-15T01:11:47.513Z,88.37
2017-10-15T01:14:15.107Z,88.40
2017-10-15T01:16:43.083Z,88.48
2017-10-15T01:19:10.654Z,88.35
2017-10-15T01:21:38.201Z,88.34
2017-10-15T01:24:05.831Z,88.40
2017-10-15T01:26:33.405Z,88.60
2017-10-15T01:29:01.906Z,88.44
2017-10-15T01:31:29.649Z,88.42
2017-10-15T01:33:57.549Z,88.25
2017-10-15T01:36:25.461Z,88.49
2017-10-15T01:38:53.090Z,88.89
2017-10-15T01:41:21.771Z,88.89
2017-10-15T01:43:50.589Z,88.93
2017-10-15T01:46:18.159Z,88.85
2017-10-15T01:48:45.743Z,88.79
2017-10-15T01:51:13.315Z,88.73
2017-10-15T01:53:40.869Z,88.80
2017-10-15T01:56:08.752Z,88.66
2017-10-15T01:58:36.713Z,88.81
2017-10-15T02:01:04.259Z,88.51
2017-10-15T02:03:31.837Z,88.58
2017-10-15T02:05:59.391Z,88.64
2017-10-15T02:08:26.966Z,88.64
2017-10-15T02:10:54.528Z,88.65
2017-10-15T02:13:22.401Z,88.81
2017-10-15T02:15:49.962Z,88.72
2017-10-15T02:18:17.536Z,89.08
2017-10-15T02:20:45.120Z,89.33
2017-10-15T02:23:12.678Z,89.74
2017-10-15T02:25:40.261Z,89.93
2017-10-15T02:28:07.825Z,89.90
2017-10-15T02:30:35.860Z,89.90
2017-10-15T02:33:03.454Z,89.89
2017-10-15T02:35:31.043Z,89.97
2017-10-15T02:37:58.637Z,90.14
2017-10-15T02:40:26.210Z,90.04
2017-10-15T02:42:53.784Z,90.70
2017-10-15T02:45:21.345Z,91.01
2017-10-15T02:47:49.471Z,91.17
2017-10-15T02:50:17.478Z,91.18
2017-10-15T02:52:45.504Z,91.08
2017-10-15T02:55:13.082Z,90.88
2017-10-15T02:57:40.785Z,90.70
2017-10-15T03:00:08.353Z,90.65
2017-10-15T03:02:35.912Z,90.54
2017-10-15T03:05:04.143Z,90.27
2017-10-15T03:07:31.727Z,90.13
2017-10-15T03:09:59.722Z,90.24
2017-10-15T03:12:27.406Z,90.64
2017-10-15T03:14:54.965Z,90.74
2017-10-15T03:17:22.557Z,90.69
2017-10-15T03:19:50.129Z,90.94
2017-10-15T03:22:17.743Z,91.17
2017-10-15T03:24:45.296Z,91.06
2017-10-15T03:27:12.911Z,91.07
2017-10-15T03:29:40.466Z,90.67
2017-10-15T03:32:08.040Z,90.92
2017-10-15T03:34:35.611Z,91.05
2017-10-15T03:37:03.206Z,91.16
2017-10-15T03:39:30.853Z,91.06
2017-10-15T03:41:58.406Z,91.15
2017-10-15T03:44:26.382Z,90.87
2017-10-15T03:46:54.050Z,90.85
2017-10-15T03:49:21.659Z,90.73
2017-10-15T03:51:49.225Z,90.87
2017-10-15T03:54:18.531Z,90.77
2017-10-15T03:56:46.098Z,90.72
2017-10-15T03:59:13.761Z,90.47
2017-10-15T04:01:41.409Z,90.34
2017-10-15T04:04:09.651Z,90.45
2017-10-15T04:06:37.226Z,90.75
2017-10-15T04:09:04.794Z,91.05
2017-10-15T04:11:32.540Z,91.36
2017-10-15T04:14:00.138Z,91.46
2017-10-15T04:16:27.728Z,91.70
2017-10-15T04:18:55.293Z,91.99
2017-10-15T04:21:22.848Z,92.02
2017-10-15T04:23:50.468Z,92.26
2017-10-15T04:26:18.036Z,92.23
2017-10-15T04:28:45.620Z,92.38
2017-10-15T04:31:13.173Z,92.10
2017-10-15T04:33:41.092Z,92.71
2017-10-15T04:36:08.662Z,93.19
2017-10-15T04:38:37.680Z,93.27
2017-10-15T04:41:05.252Z,93.29
2017-10-15T04:43:32.805Z,93.49
2017-10-15T04:46:00.410Z,93.56
2017-10-15T04:48:28.444Z,93.47
2017-10-15T04:50:56.010Z,93.58
2017-10-15T04:53:23.578Z,93.45
2017-10-15T04:55:51.599Z,93.27
2017-10-15T04:58:19.164Z,93.06
2017-10-15T05:00:47.061Z,93.25
2017-10-15T05:03:14.654Z,93.28
2017-10-15T05:05:42.204Z,93.58
2017-10-15T05:08:09.790Z,93.61
2017-10-15T05:10:37.394Z,93.74
2017-10-15T05:13:04.983Z,93.85
2017-10-15T05:15:32.552Z,93.98
2017-10-15T05:18:00.096Z,94.20
2017-10-15T05:20:27.685Z,94.07
2017-10-15T05:22:55.249Z,93.92
2017-10-15T05:25:22.869Z,93.63
2017-10-15T05:27:50.436Z,93.78
2017-10-15T05:30:18.038Z,93.74
2017-10-15T05:32:45.606Z,93.92
2017-10-15T05:35:13.558Z,93.97
2017-10-15T05:37:41.133Z,94.01
2017-10-15T05:40:08.726Z,94.18
2017-10-15T05:42:36.272Z,93.83
2017-10-15T05:45:03.820Z,93.82
2017-10-15T05:47:31.579Z,93.71
2017-10-15T05:50:00.406Z,93.74
2017-10-15T05:52:28.018Z,93.90
2017-10-15T05:54:55.565Z,94.14
2017-10-15T05:57:23.153Z,94.14
2017-10-15T05:59:50.741Z,94.11
2017-10-15T06:02:18.331Z,94.19
2017-10-15T06:04:45.887Z,94.25
2017-10-15T06:07:13.487Z,94.39
2017-10-15T06:09:41.272Z,94.43
2017-10-15T06:12:08.827Z,94.57
2017-10-15T06:14:36.415Z,94.84
2017-10-15T06:17:03.968Z,95.12
2017-10-15T06:19:31.547Z,95.63
2017-10-15T06:21:59.110Z,95.66
2017-10-15T06:24:27.277Z,95.95
2017-10-15T06:26:54.854Z,95.79
2017-10-15T06:29:25.248Z,95.79
2017-10-15T06:31:52.879Z,95.64
2017-10-15T06:34:20.472Z,95.66
2017-10-15T06:36:48.056Z,95.59
2017-10-15T06:39:15.617Z,95.36
2017-10-15T06:41:43.216Z,95.32
2017-10-15T06:44:10.790Z,95.21
2017-10-15T06:46:38.368Z,95.18
2017-10-15T06:49:05.908Z,94.91
2017-10-15T06:51:33.471Z,94.85
2017-10-15T06:54:01.044Z,94.94
2017-10-15T06:56:28.597Z,94.96
2017-10-15T06:58:56.502Z,94.74
2017-10-15T07:01:24.079Z,94.92
2017-10-15T07:03:52.194Z,95.05
2017-10-15T07:06:19.752Z,94.88
2017-10-15T07:08:47.346Z,95.14
2017-10-15T07:11:14.941Z,95.14
2017-10-15T07:13:42.518Z,95.07
2017-10-15T07:16:10.110Z,94.74
2017-10-15T07:18:37.794Z,95.13
2017-10-15T07:21:05.359Z,95.08
2017-10-15T07:23:33.352Z,94.99
2017-10-15T07:26:01.175Z,95.32
2017-10-15T07:28:28.762Z,95.28
2017-10-15T07:30:56.566Z,95.13
2017-10-15T07:33:24.151Z,94.89
2017-10-15T07:35:52.074Z,94.79
2017-10-15T07:38:19.655Z,94.70
2017-10-15T07:40:47.239Z,94.66
2017-10-15T07:43:14.849Z,94.49
2017-10-15T07:45:42.451Z,94.65
2017-10-15T07:48:10.236Z,94.71
2017-10-15T07:50:38.688Z,94.62
2017-10-15T07:53:06.669Z,94.64
2017-10-15T07:55:34.566Z,94.57
2017-10-15T07:58:02.142Z,94.65
2017-10-15T08:00:29.741Z,95.02
2017-10-15T08:02:57.322Z,95.01
2017-10-15T08:05:24.913Z,94.93
2017-10-15T08:07:53.179Z,94.77
2017-10-15T08:10:20.792Z,94.33
2017-10-15T08:12:48.403Z,94.20
2017-10-15T08:15:16.135Z,94.08
2017-10-15T08:17:43.764Z,94.03
2017-10-15T08:20:11.333Z,93.97
2017-10-15T08:22:39.050Z,93.99
2017-10-15T08:25:07.040Z,94.03
2017-10-15T08:27:34.646Z,94.18
2017-10-15T08:30:02.235Z,94.18
2017-10-15T08:32:29.824Z,94.09
2017-10-15T08:34:57.449Z,93.81
2017-10-15T08:37:25.034Z,93.58
2017-10-15T08:39:52.621Z,93.38
2017-10-15T08:42:20.209Z,93.11
2017-10-15T08:44:47.825Z,92.82
2017-10-15T08:47:15.424Z,92.61
2017-10-15T08:49:43.019Z,92.43
2017-10-15T08:52:11.178Z,92.41
2017-10-15T08:54:38.769Z,91.96
2017-10-15T08:57:06.892Z,91.57
2017-10-15T08:59:34.496Z,91.22
2017-10-15T09:02:02.098Z,90.71
2017-10-15T09:04:29.727Z,90.50
2017-10-15T09:06:57.331Z,89.77
2017-10-15T09:09:25.129Z,89.40
2017-10-15T09:11:52.803Z,89.14
2017-10-15T09:14:20.419Z,88.66
2017-10-15T09:16:48.004Z,88.01
2017-10-15T09:19:15.637Z,87.34
2017-10-15T09:21:43.329Z,87.02
2017-10-15T09:24:10.949Z,87.17
2017-10-15T09:26:38.543Z,86.88
2017-10-15T09:29:06.310Z,86.65
2017-10-15T09:31:33.883Z,87.69
2017-10-15T09:34:01.588Z,87.61
2017-10-15T09:36:29.202Z,87.38
2017-10-15T09:38:56.840Z,85.89
2017-10-15T09:41:24.450Z,85.54
2017-10-15T09:43:52.706Z,85.78
2017-10-15T09:46:20.332Z,85.09
2017-10-15T09:48:47.912Z,84.58
2017-10-15T09:51:15.509Z,84.39
2017-10-15T09:53:43.188Z,84.24
2017-10-15T09:56:10.824Z,83.50
2017-10-15T09:58:38.609Z,83.34
2017-10-15T10:01:06.272Z,83.11
2017-10-15T10:03:33.856Z,82.66
2017-10-15T10:06:01.483Z,82.14
2017-10-15T10:08:29.267Z,82.08
2017-10-15T10:10:56.852Z,80.91
2017-10-15T10:13:24.428Z,81.46
2017-10-15T10:15:52.002Z,80.65
2017-10-15T10:18:19.604Z,80.46
2017-10-15T10:20:47.616Z,79.62
2017-10-15T10:23:15.202Z,79.31
2017-10-15T10:25:42.798Z,79.23
2017-10-15T10:28:10.392Z,79.07
2017-10-15T10:30:38.017Z,79.27
2017-10-15T10:33:05.603Z,78.63
2017-10-15T10:35:33.212Z,76.70
2017-10-15T10:38:01.349Z,76.97
2017-10-15T10:40:29.008Z,76.88
2017-10-15T10:42:56.598Z,76.44
2017-10-15T10:45:24.180Z,76.85
2017-10-15T10:47:51.786Z,76.79
2017-10-15T10:50:19.376Z,75.76
2017-10-15T10:52:46.978Z,75.46
2017-10-15T10:55:14.650Z,75.26
2017-10-15T10:57:42.266Z,75.61
2017-10-15T11:00:09.837Z,75.87
2017-10-15T11:02:37.802Z,75.70
2017-10-15T11:05:05.404Z,75.64
2017-10-15T11:07:33.005Z,75.27
2017-10-15T11:10:00.609Z,75.44
2017-10-15T11:12:28.174Z,74.77
2017-10-15T11:14:57.063Z,74.80
2017-10-15T11:17:24.671Z,74.79
2017-10-15T11:19:52.537Z,73.92
2017-10-15T11:22:20.329Z,72.72
2017-10-15T11:24:47.900Z,72.82
2017-10-15T11:27:15.521Z,72.51
2017-10-15T11:29:43.122Z,72.88
2017-10-15T11:32:10.877Z,72.32
2017-10-15T11:34:38.454Z,72.58
2017-10-15T11:37:06.050Z,71.86
2017-10-15T11:39:33.782Z,72.47
2017-10-15T11:42:01.746Z,72.58
2017-10-15T11:44:29.308Z,71.56
2017-10-15T11:46:56.915Z,71.12
2017-10-15T11:49:24.538Z,70.97
2017-10-15T11:51:52.748Z,70.48
2017-10-15T11:54:21.349Z,69.92
2017-10-15T11:56:48.920Z,70.79
2017-10-15T11:59:16.907Z,71.53
2017-10-15T12:01:44.496Z,73.17
2017-10-15T12:04:12.506Z,72.34
2017-10-15T12:06:40.087Z,71.80
2017-10-15T12:09:07.667Z,71.59
2017-10-15T12:11:35.812Z,72.62
2017-10-15T12:14:03.412Z,73.43
2017-10-15T12:16:31.026Z,73.39
2017-10-15T12:18:58.632Z,73.22
2017-10-15T12:21:26.234Z,73.45
2017-10-15T12:23:53.813Z,73.48
2017-10-15T12:26:21.420Z,73.11
2017-10-15T12:28:49.383Z,73.57
2017-10-15T12:31:16.962Z,73.12
2017-10-15T12:33:44.905Z,73.22
2017-10-15T12:36:12.484Z,74.19
2017-10-15T12:38:40.059Z,73.32
2017-10-15T12:41:07.643Z,73.00
2017-10-15T12:43:35.440Z,72.27
2017-10-15T12:46:03.033Z,72.63
2017-10-15T12:48:30.613Z,72.68
2017-10-15T12:50:58.424Z,72.19
2017-10-15T12:53:26.123Z,72.23
2017-10-15T12:55:53.755Z,72.11
2017-10-15T12:58:21.306Z,72.28
2017-10-15T13:00:48.924Z,71.66
2017-10-15T13:03:16.517Z,71.43
2017-10-15T13:05:44.089Z,70.97
2017-10-15T13:08:11.678Z,70.75
2017-10-15T13:10:39.291Z,70.62
2017-10-15T13:13:06.896Z,71.45
2017-10-15T13:15:34.474Z,70.58
2017-10-15T13:18:02.102Z,70.04
2017-10-15T13:20:29.673Z,69.82
2017-10-15T13:22:57.260Z,70.12
2017-10-15T13:25:25.259Z,71.08
2017-10-15T13:27:52.831Z,69.89
2017-10-15T13:30:20.450Z,69.70
2017-10-15T13:32:48.017Z,68.97
2017-10-15T13:35:15.981Z,69.21
2017-10-15T13:37:43.554Z,70.76
2017-10-15T13:40:11.174Z,71.82
2017-10-15T13:42:38.867Z,69.38
2017-10-15T13:45:06.556Z,69.24
2017-10-15T13:47:34.134Z,68.60
2017-10-15T13:50:01.724Z,68.05
2017-10-15T13:52:29.307Z,67.53
2017-10-15T13:54:56.907Z,66.57
2017-10-15T13:57:24.514Z,67.04
2017-10-15T13:59:52.089Z,67.64
2017-10-15T14:02:19.665Z,66.96
2017-10-15T14:04:47.209Z,65.65
2017-10-15T14:07:15.191Z,65.26
2017-10-15T14:09:42.796Z,65.35
2017-10-15T14:12:10.439Z,64.91
2017-10-15T14:14:38.041Z,64.82
2017-10-15T14:17:06.419Z,64.56
2017-10-15T14:19:34.873Z,64.72
2017-10-15T14:22:02.552Z,63.61
2017-10-15T14:24:30.134Z,64.08
2017-10-15T14:26:57.700Z,63.39
2017-10-15T14:29:25.655Z,64.12
2017-10-15T14:31:53.233Z,62.80
2017-10-15T14:34:21.004Z,62.59
2017-10-15T14:36:48.589Z,62.49
2017-10-15T14:39:16.268Z,61.63
2017-10-15T14:41:43.864Z,61.63
2017-10-15T14:44:11.614Z,60.84
2017-10-15T14:46:39.597Z,61.16
2017-10-15T14:49:07.284Z,60.80
2017-10-15T14:51:35.454Z,60.14
2017-10-15T14:54:03.214Z,59.67
2017-10-15T14:56:31.234Z,58.51
2017-10-15T14:58:58.827Z,59.08
2017-10-15T15:01:26.495Z,59.65
2017-10-15T15:03:54.103Z,59.37
2017-10-15T15:06:21.699Z,58.26
2017-10-15T15:08:49.335Z,60.26
2017-10-15T15:11:17.657Z,58.16
2017-10-15T15:13:45.221Z,58.73
2017-10-15T15:16:12.820Z,58.26
2017-10-15T15:18:40.432Z,58.34
2017-10-15T15:21:13.065Z,59.77
2017-10-15T15:23:40.641Z,60.04
2017-10-15T15:26:08.648Z,60.49
2017-10-15T15:28:36.276Z,60.37
2017-10-15T15:31:03.867Z,61.23
2017-10-15T15:33:32.023Z,61.46
2017-10-15T15:36:01.068Z,62.36
2017-10-15T15:38:28.703Z,62.36
2017-10-15T15:40:56.328Z,62.33
2017-10-15T15:43:23.943Z,63.08
2017-10-15T15:45:51.563Z,63.80
2017-10-15T15:48:19.179Z,64.59
2017-10-15T15:50:46.782Z,64.85
2017-10-15T15:53:14.424Z,65.69
2017-10-15T15:55:41.990Z,65.78
2017-10-15T15:58:10.474Z,66.28
2017-10-15T16:00:39.401Z,66.44
2017-10-15T16:16:12.203Z,68.58
2017-10-15T16:18:39.766Z,68.88
2017-10-15T16:21:07.385Z,69.10
2017-10-15T16:23:36.210Z,69.46
2017-10-15T16:26:03.916Z,69.85
2017-10-15T16:28:31.549Z,70.14
2017-10-15T16:31:01.000Z,70.21
2017-10-15T16:33:29.928Z,70.54
2017-10-15T16:35:57.517Z,70.65
2017-10-15T16:38:25.098Z,71.08
2017-10-15T16:40:53.437Z,71.46
2017-10-15T16:43:22.271Z,71.95
2017-10-15T16:45:49.916Z,72.35
2017-10-15T16:48:17.576Z,72.79
2017-10-15T16:50:45.185Z,73.37
2017-10-15T16:53:12.960Z,73.92
2017-10-15T16:55:40.713Z,74.37
2017-10-15T16:58:08.357Z,74.87
2017-10-15T17:00:35.965Z,75.13
2017-10-15T17:03:03.637Z,75.49
2017-10-15T17:05:31.703Z,75.81
2017-10-15T17:07:59.517Z,76.42
2017-10-15T17:10:27.199Z,76.52
2017-10-15T17:12:54.949Z,76.93
2017-10-15T17:19:27.627Z,78.35
2017-10-15T17:21:55.299Z,78.58
2017-10-15T17:25:22.594Z,79.59
2017-10-15T17:27:50.302Z,80.13
2017-10-15T17:30:18.180Z,80.24
2017-10-15T17:32:46.051Z,80.72
2017-10-15T17:35:13.842Z,80.88
2017-10-15T17:37:41.633Z,81.04
2017-10-15T17:40:09.587Z,81.15
2017-10-15T17:42:37.392Z,81.10
2017-10-15T17:45:05.205Z,81.15
2017-10-15T17:47:33.426Z,81.11
2017-10-15T17:50:01.383Z,81.27
2017-10-15T17:52:29.302Z,81.31
2017-10-15T17:54:57.175Z,81.43
2017-10-15T17:57:25.141Z,81.60
2017-10-15T17:59:53.105Z,81.76
2017-10-15T18:02:31.031Z,81.93
2017-10-15T18:04:58.883Z,82.19
2017-10-15T18:07:26.797Z,82.10
2017-10-15T18:09:54.617Z,82.12
2017-10-15T18:12:22.459Z,82.27
2017-10-15T18:14:50.348Z,82.41
2017-10-15T18:17:18.229Z,82.56
2017-10-15T18:19:46.184Z,82.85
2017-10-15T18:22:14.047Z,83.27
2017-10-15T18:24:42.022Z,83.40
2017-10-15T18:27:10.211Z,83.62
2017-10-15T18:29:38.168Z,83.74
2017-10-15T18:32:06.729Z,83.79
2017-10-15T18:34:34.727Z,83.93
2017-10-15T18:37:02.691Z,83.87
2017-10-15T18:39:30.888Z,83.94
2017-10-15T18:41:59.422Z,84.15
2017-10-15T18:44:27.422Z,84.02
2017-10-15T18:46:55.347Z,84.08
2017-10-15T18:49:23.358Z,84.32
2017-10-15T18:51:52.070Z,85.22
2017-10-15T18:54:20.120Z,85.60
2017-10-15T18:56:50.440Z,85.69
2017-10-15T18:59:21.420Z,85.42
2017-10-15T19:01:49.574Z,85.38
2017-10-15T19:04:17.545Z,85.34
2017-10-15T19:06:45.487Z,85.50
2017-10-15T19:09:14.188Z,85.80
2017-10-15T19:11:42.189Z,85.77
2017-10-15T19:14:10.228Z,85.66
2017-10-15T19:16:38.194Z,85.44
2017-10-15T19:19:06.241Z,85.56
2017-10-15T19:21:34.241Z,85.35
2017-10-15T19:24:02.202Z,85.27
2017-10-15T19:29:02.765Z,85.61
2017-10-15T19:31:31.237Z,85.46
2017-10-15T19:34:00.630Z,85.45
2017-10-15T19:36:28.639Z,85.68
2017-10-15T19:38:57.600Z,85.81
2017-10-15T19:41:25.581Z,85.65
2017-10-15T19:43:53.591Z,85.52
2017-10-15T19:46:21.605Z,85.58
2017-10-15T19:48:50.863Z,85.50
2017-10-15T19:51:19.764Z,85.58
2017-10-15T19:53:49.001Z,85.78
2017-10-15T19:56:17.792Z,85.72
2017-10-15T19:58:45.758Z,85.67
2017-10-15T20:01:13.749Z,85.84
2017-10-15T20:03:42.496Z,86.34
2017-10-15T20:06:10.391Z,86.55
2017-10-15T20:08:38.464Z,86.32
2017-10-15T20:24:12.868Z,86.07
2017-10-15T20:26:40.709Z,86.07
2017-10-15T20:29:09.008Z,85.90
2017-10-15T20:31:36.871Z,85.89
2017-10-15T20:34:04.714Z,85.88
2017-10-15T20:36:32.518Z,86.04
2017-10-15T20:39:00.269Z,85.99
2017-10-15T20:41:28.042Z,86.02
2017-10-15T20:43:55.784Z,86.20
2017-10-15T20:46:23.636Z,86.38
2017-10-15T20:48:51.531Z,86.59
2017-10-15T20:51:19.289Z,86.69
2017-10-15T20:53:46.966Z,86.70
2017-10-15T20:56:14.646Z,86.51
2017-10-15T20:58:42.279Z,86.64
2017-10-15T21:01:09.966Z,86.65
2017-10-15T21:03:37.572Z,86.65
2017-10-15T21:06:05.148Z,86.73
2017-10-15T21:08:32.701Z,87.05
2017-10-15T21:11:00.282Z,86.95
2017-10-15T21:13:27.873Z,86.87
2017-10-15T21:15:55.435Z,86.71
2017-10-15T21:18:23.039Z,86.98
2017-10-15T21:20:50.628Z,87.46
2017-10-15T21:23:18.230Z,87.55
2017-10-15T21:25:45.824Z,87.51
2017-10-15T21:28:13.399Z,87.67
2017-10-15T21:30:40.972Z,87.80
2017-10-15T21:33:08.537Z,87.81
2017-10-15T21:35:36.132Z,87.65
2017-10-15T21:38:03.854Z,87.24
2017-10-15T21:40:31.452Z,87.06
2017-10-15T21:42:59.007Z,86.94
2017-10-15T21:45:26.616Z,86.76
2017-10-15T21:47:54.180Z,86.63
2017-10-15T21:50:21.778Z,86.57
2017-10-15T21:52:49.341Z,86.59
2017-10-15T21:55:16.984Z,86.76
2017-10-15T21:57:44.560Z,86.70
2017-10-15T22:00:12.124Z,86.75
2017-10-15T22:02:39.798Z,86.75
2017-10-15T22:05:07.357Z,86.83
2017-10-15T22:07:34.954Z,86.86
2017-10-15T22:10:02.510Z,86.96
2017-10-15T22:12:30.391Z,87.07
2017-10-15T22:14:58.203Z,86.91
2017-10-15T22:17:26.178Z,86.79
2017-10-15T22:19:53.775Z,86.87
2017-10-15T22:22:25.389Z,86.86
2017-10-15T22:24:52.990Z,87.03
2017-10-15T22:27:20.537Z,87.01
2017-10-15T22:29:48.133Z,86.92
2017-10-15T22:32:15.705Z,86.64
2017-10-15T22:34:43.322Z,86.52
2017-10-15T22:37:11.075Z,86.54
2017-10-15T22:39:38.999Z,86.57
2017-10-15T22:42:06.569Z,87.12
2017-10-15T22:44:34.143Z,87.17
2017-10-15T22:47:01.731Z,87.18
2017-10-15T22:49:29.296Z,87.73
2017-10-15T22:51:56.932Z,87.75
2017-10-15T22:54:24.514Z,87.87
2017-10-15T22:56:52.111Z,87.85
2017-10-15T22:59:19.684Z,87.75
2017-10-15T23:01:47.365Z,87.76
2017-10-15T23:04:14.944Z,87.93
2017-10-15T23:06:42.540Z,87.71
2017-10-15T23:09:10.111Z,87.93
2017-10-15T23:11:37.660Z,87.90
2017-10-15T23:14:05.286Z,87.66
2017-10-15T23:16:32.833Z,87.51
2017-10-15T23:19:00.396Z,87.45
2017-10-15T23:21:27.955Z,87.50
2017-10-15T23:23:55.545Z,87.38
2017-10-15T23:26:23.107Z,87.31
2017-10-15T23:28:51.009Z,87.35
2017-10-15T23:31:19.490Z,87.90
2017-10-15T23:33:47.052Z,87.85
2017-10-15T23:36:14.640Z,88.44
2017-10-15T23:38:42.213Z,89.65
2017-10-15T23:41:09.815Z,90.23
2017-10-15T23:43:37.364Z,90.21
2017-10-15T23:46:04.950Z,90.79
2017-10-15T23:48:32.601Z,90.66
2017-10-15T23:51:00.180Z,90.35
2017-10-15T23:53:27.760Z,90.36
2017-10-15T23:55:55.377Z,90.37
2017-10-15T23:58:22.970Z,90.54
